createdAt,value
2023-03-11T00:01:55.087Z,96399.60
2023-03-11T00:05:00.273Z,96396.40
2023-03-11T00:08:06.833Z,96399.20
2023-03-11T00:11:12.062Z,96402.40
2023-03-11T00:14:16.960Z,96403.00
2023-03-11T00:17:22.059Z,96403.20
2023-03-11T00:20:30.617Z,96407.00
2023-03-11T00:23:35.491Z,96414.40
2023-03-11T00:26:40.192Z,96411.60
2023-03-11T00:29:45.420Z,96403.60
2023-03-11T00:32:53.289Z,96405.60
2023-03-11T00:35:58.495Z,96401.20
2023-03-11T00:39:05.973Z,96399.20
2023-03-11T00:42:10.875Z,96401.20
2023-03-11T00:45:16.788Z,96395.60
2023-03-11T00:48:21.834Z,96399.60
2023-03-11T00:51:27.942Z,96396.80
2023-03-11T00:54:32.707Z,96400.80
2023-03-11T00:57:39.452Z,96399.00
2023-03-11T01:00:45.179Z,96395.60
2023-03-11T01:03:50.512Z,96393.40
2023-03-11T01:06:55.569Z,96389.60
2023-03-11T01:10:00.846Z,96385.00
2023-03-11T01:13:06.136Z,96378.40
2023-03-11T01:16:11.209Z,96374.60
2023-03-11T01:19:16.602Z,96362.80
2023-03-11T01:22:21.381Z,96365.00
2023-03-11T01:25:26.745Z,96363.00
2023-03-11T01:28:31.707Z,96361.20
2023-03-11T01:31:36.440Z,96370.80
2023-03-11T01:34:41.424Z,96368.40
2023-03-11T01:37:46.752Z,96369.00
2023-03-11T01:40:52.991Z,96358.20
2023-03-11T01:43:57.849Z,96355.40
2023-03-11T01:47:38.469Z,96365.80
2023-03-11T01:50:49.867Z,96367.40
2023-03-11T01:53:57.151Z,96375.20
2023-03-11T01:57:07.735Z,96380.60
2023-03-11T02:00:16.374Z,96386.80
2023-03-11T02:03:28.888Z,96389.60
2023-03-11T02:06:34.555Z,96401.60
2023-03-11T02:09:39.586Z,96399.60
2023-03-11T02:12:46.926Z,96401.00
2023-03-11T02:15:52.766Z,96403.00
2023-03-11T02:19:03.913Z,96411.60
2023-03-11T02:22:11.412Z,96414.40
2023-03-11T02:25:32.138Z,96423.60
2023-03-11T02:28:40.134Z,96424.60
2023-03-11T02:31:48.339Z,96418.60
2023-03-11T02:34:53.187Z,96418.60
2023-03-11T02:37:58.300Z,96424.00
2023-03-11T02:41:06.296Z,96423.40
2023-03-11T02:44:15.528Z,96419.20
2023-03-11T02:47:20.588Z,96429.20
2023-03-11T02:50:28.914Z,96427.60
2023-03-11T02:53:39.046Z,96431.80
2023-03-11T02:56:44.316Z,96427.40
2023-03-11T02:59:50.082Z,96432.80
2023-03-11T03:02:55.266Z,96424.20
2023-03-11T03:06:00.229Z,96430.00
2023-03-11T03:09:05.345Z,96430.60
2023-03-11T03:12:10.478Z,96429.20
2023-03-11T03:15:15.850Z,96432.00
2023-03-11T03:18:21.275Z,96431.40
2023-03-11T03:21:26.678Z,96442.00
2023-03-11T03:24:31.606Z,96448.80
2023-03-11T03:27:37.234Z,96451.00
2023-03-11T03:30:43.116Z,96457.80
2023-03-11T03:33:48.363Z,96447.60
2023-03-11T03:36:53.284Z,96441.40
2023-03-11T03:39:58.277Z,96427.20
2023-03-11T03:43:03.269Z,96437.00
2023-03-11T03:46:08.744Z,96421.80
2023-03-11T03:49:13.661Z,96431.00
2023-03-11T03:52:18.805Z,96422.80
2023-03-11T03:55:23.746Z,96417.00
2023-03-11T03:58:28.653Z,96426.00
2023-03-11T04:01:33.742Z,96438.60
2023-03-11T04:04:38.942Z,96440.20
2023-03-11T04:07:43.974Z,96448.80
2023-03-11T04:10:58.429Z,96457.40
2023-03-11T04:14:03.865Z,96459.20
2023-03-11T04:17:10.057Z,96464.60
2023-03-11T04:20:15.513Z,96464.60
2023-03-11T04:23:20.393Z,96475.60
2023-03-11T04:26:27.923Z,96510.20
2023-03-11T04:29:33.605Z,96499.60
2023-03-11T04:32:38.732Z,96497.80
2023-03-11T04:35:43.946Z,96487.80
2023-03-11T04:38:49.219Z,96487.40
2023-03-11T04:41:54.060Z,96489.80
2023-03-11T04:44:59.038Z,96481.40
2023-03-11T04:48:04.212Z,96482.00
2023-03-11T04:51:09.279Z,96481.60
2023-03-11T04:54:14.165Z,96471.20
2023-03-11T04:57:19.350Z,96474.40
2023-03-11T05:00:24.851Z,96487.80
2023-03-11T05:03:30.004Z,96483.20
2023-03-11T05:06:34.933Z,96475.80
2023-03-11T05:09:40.086Z,96476.40
2023-03-11T05:12:45.432Z,96486.60
2023-03-11T05:15:50.592Z,96493.00
2023-03-11T05:18:55.378Z,96499.80
2023-03-11T05:22:00.747Z,96500.00
2023-03-11T05:25:07.398Z,96488.80
2023-03-11T05:28:12.806Z,96484.60
2023-03-11T05:31:17.625Z,96493.80
2023-03-11T05:34:23.982Z,96492.40
2023-03-11T05:37:31.766Z,96488.00
2023-03-11T05:40:36.809Z,96495.60
2023-03-11T05:43:42.676Z,96505.00
2023-03-11T05:46:47.739Z,96504.80
2023-03-11T05:49:53.768Z,96518.20
2023-03-11T05:52:58.834Z,96530.00
2023-03-11T05:56:05.579Z,96551.40
2023-03-11T05:59:13.270Z,96555.80
2023-03-11T06:02:20.820Z,96566.40
2023-03-11T06:05:25.598Z,96573.40
2023-03-11T06:08:30.644Z,96567.80
2023-03-11T06:11:35.490Z,96572.40
2023-03-11T06:14:40.747Z,96571.00
2023-03-11T06:17:46.564Z,96578.60
2023-03-11T06:20:51.845Z,96584.20
2023-03-11T06:23:57.064Z,96571.00
2023-03-11T06:27:02.360Z,96568.20
2023-03-11T06:30:10.972Z,96593.00
2023-03-11T06:33:16.414Z,96601.80
2023-03-11T06:36:22.266Z,96622.20
2023-03-11T06:39:27.335Z,96625.00
2023-03-11T06:42:32.640Z,96634.80
2023-03-11T06:45:37.499Z,96632.60
2023-03-11T06:48:42.931Z,96616.20
2023-03-11T06:51:47.777Z,96624.20
2023-03-11T06:54:52.504Z,96642.40
2023-03-11T06:57:57.310Z,96636.20
2023-03-11T07:01:10.186Z,96675.20
2023-03-11T07:04:15.342Z,96662.20
2023-03-11T07:07:20.834Z,96674.80
2023-03-11T07:10:25.858Z,96678.20
2023-03-11T07:13:31.092Z,96683.80
2023-03-11T07:16:38.697Z,96674.60
2023-03-11T07:19:43.966Z,96680.40
2023-03-11T07:22:49.202Z,96657.60
2023-03-11T07:25:55.135Z,96640.80
2023-03-11T07:29:00.559Z,96637.00
2023-03-11T07:32:08.325Z,96659.60
2023-03-11T07:35:14.009Z,96672.00
2023-03-11T07:38:20.111Z,96679.40
2023-03-11T07:41:25.759Z,96687.00
2023-03-11T07:44:30.886Z,96694.00
2023-03-11T07:47:35.957Z,96682.60
2023-03-11T07:50:41.201Z,96693.20
2023-03-11T07:53:47.871Z,96677.40
2023-03-11T07:56:53.052Z,96668.80
2023-03-11T07:59:57.957Z,96681.60
2023-03-11T08:03:03.018Z,96684.20
2023-03-11T08:06:15.833Z,96682.80
2023-03-11T08:09:20.961Z,96695.00
2023-03-11T08:12:25.898Z,96683.80
2023-03-11T08:15:31.154Z,96691.60
2023-03-11T08:18:36.688Z,96701.20
2023-03-11T08:21:42.417Z,96722.20
2023-03-11T08:24:49.931Z,96727.00
2023-03-11T08:27:55.126Z,96722.40
2023-03-11T08:31:00.470Z,96731.20
2023-03-11T08:34:09.051Z,96735.60
2023-03-11T08:37:14.145Z,96720.20
2023-03-11T08:40:21.809Z,96728.00
2023-03-11T08:43:26.556Z,96740.20
2023-03-11T08:46:35.717Z,96755.00
2023-03-11T08:49:40.923Z,96755.60
2023-03-11T08:52:48.822Z,96754.00
2023-03-11T08:55:54.559Z,96736.20
2023-03-11T08:58:59.526Z,96735.20
2023-03-11T09:02:04.611Z,96751.20
2023-03-11T09:05:11.423Z,96755.00
2023-03-11T09:08:16.795Z,96763.00
2023-03-11T09:11:21.995Z,96764.00
2023-03-11T09:14:27.444Z,96775.60
2023-03-11T09:17:32.310Z,96778.20
2023-03-11T09:20:40.627Z,96777.60
2023-03-11T09:23:45.811Z,96789.80
2023-03-11T09:26:50.870Z,96794.40
2023-03-11T09:29:55.908Z,96808.80
2023-03-11T09:33:03.020Z,96808.40
2023-03-11T09:36:13.677Z,96818.40
2023-03-11T09:39:18.606Z,96808.20
2023-03-11T09:42:33.715Z,96821.00
2023-03-11T09:45:48.931Z,96819.20
2023-03-11T09:49:04.439Z,96823.20
2023-03-11T09:52:14.823Z,96833.60
2023-03-11T09:55:31.644Z,96818.60
2023-03-11T09:58:44.774Z,96825.20
2023-03-11T10:01:51.783Z,96839.20
2023-03-11T10:05:02.393Z,96826.00
2023-03-11T10:08:23.360Z,96824.40
2023-03-11T10:12:03.087Z,96823.00
2023-03-11T10:15:29.758Z,96831.40
2023-03-11T10:18:53.944Z,96816.20
2023-03-11T10:22:11.039Z,96823.00
2023-03-11T10:25:20.960Z,96819.40
2023-03-11T10:28:34.285Z,96815.40
2023-03-11T10:31:46.575Z,96814.00
2023-03-11T10:34:58.882Z,96814.00
2023-03-11T10:38:14.719Z,96824.20
2023-03-11T10:41:28.761Z,96823.60
2023-03-11T10:44:37.231Z,96837.80
2023-03-11T10:47:42.753Z,96837.60
2023-03-11T10:50:57.810Z,96837.20
2023-03-11T10:54:04.489Z,96847.00
2023-03-11T10:57:26.554Z,96860.60
2023-03-11T11:00:32.425Z,96867.20
2023-03-11T11:03:42.959Z,96867.60
2023-03-11T11:06:48.172Z,96880.40
2023-03-11T11:10:17.094Z,96876.20
2023-03-11T11:13:24.975Z,96883.00
2023-03-11T11:16:30.500Z,96877.80
2023-03-11T11:19:43.275Z,96887.20
2023-03-11T11:22:54.330Z,96880.80
2023-03-11T11:26:04.305Z,96882.60
2023-03-11T11:29:16.599Z,96869.00
2023-03-11T11:32:27.135Z,96880.00
2023-03-11T11:35:31.991Z,96877.20
2023-03-11T11:38:37.160Z,96874.60
2023-03-11T11:41:43.714Z,96865.20
2023-03-11T11:44:53.515Z,96869.40
2023-03-11T11:48:04.571Z,96867.80
2023-03-11T11:51:19.839Z,96871.40
2023-03-11T11:54:33.519Z,96875.00
2023-03-11T11:57:39.080Z,96877.20
2023-03-11T12:00:58.438Z,96888.80
2023-03-11T12:04:45.878Z,96897.40
2023-03-11T12:08:12.138Z,96910.60
2023-03-11T12:11:32.246Z,96930.40
2023-03-11T12:14:45.785Z,96928.40
2023-03-11T12:17:58.010Z,96944.20
2023-03-11T12:21:26.688Z,96939.00
2023-03-11T12:24:57.220Z,96943.40
2023-03-11T12:28:15.663Z,96936.60
2023-03-11T12:31:23.842Z,96935.20
2023-03-11T12:34:33.799Z,96922.00
2023-03-11T12:37:39.096Z,96919.20
2023-03-11T12:40:59.299Z,96903.80
2023-03-11T12:44:20.354Z,96892.80
2023-03-11T12:47:28.672Z,96899.00
2023-03-11T12:50:43.605Z,96887.20
2023-03-11T12:53:50.273Z,96902.20
2023-03-11T12:56:58.902Z,96890.60
2023-03-11T13:00:34.348Z,96899.80
2023-03-11T13:04:00.633Z,96904.40
2023-03-11T13:07:50.163Z,96924.00
2023-03-11T13:10:56.593Z,96940.20
2023-03-11T13:14:31.224Z,96926.80
2023-03-11T13:17:36.146Z,96953.80
2023-03-11T13:21:03.222Z,96971.80
2023-03-11T13:24:51.923Z,96976.20
2023-03-11T13:28:19.701Z,96986.60
2023-03-11T13:31:44.071Z,96985.20
2023-03-11T13:35:04.003Z,96985.80
2023-03-11T13:38:20.819Z,96993.20
2023-03-11T13:41:34.861Z,96988.80
2023-03-11T13:44:42.806Z,96989.00
2023-03-11T13:47:50.015Z,96997.80
2023-03-11T13:51:02.350Z,97005.40
2023-03-11T13:54:30.115Z,97016.40
2023-03-11T13:57:37.218Z,97022.40
2023-03-11T14:00:51.600Z,97037.80
2023-03-11T14:03:56.808Z,97047.80
2023-03-11T14:07:14.184Z,97045.00
2023-03-11T14:10:28.573Z,97065.60
2023-03-11T14:13:38.728Z,97065.80
2023-03-11T14:16:44.644Z,97063.00
2023-03-11T14:20:06.898Z,97062.20
2023-03-11T14:23:22.916Z,97073.60
2023-03-11T14:26:29.796Z,97076.40
2023-03-11T14:29:39.054Z,97080.40
2023-03-11T14:32:55.030Z,97078.40
2023-03-11T14:36:04.268Z,97096.00
2023-03-11T14:39:46.280Z,97100.40
2023-03-11T14:42:53.773Z,97106.20
2023-03-11T14:45:59.845Z,97105.60
2023-03-11T14:49:13.036Z,97122.40
2023-03-11T14:52:29.067Z,97130.00
2023-03-11T14:55:39.934Z,97144.60
2023-03-11T14:59:08.403Z,97146.80
2023-03-11T15:02:44.899Z,97150.20
2023-03-11T15:05:55.027Z,97151.00
2023-03-11T15:09:05.599Z,97144.60
2023-03-11T15:12:34.463Z,97150.20
2023-03-11T15:15:39.719Z,97154.60
2023-03-11T15:18:45.227Z,97147.80
2023-03-11T15:21:53.935Z,97151.40
2023-03-11T15:25:01.132Z,97156.20
2023-03-11T15:28:29.433Z,97160.40
2023-03-11T15:31:37.834Z,97179.20
2023-03-11T15:34:43.034Z,97177.00
2023-03-11T15:37:50.223Z,97191.60
2023-03-11T15:40:58.297Z,97204.60
2023-03-11T15:44:06.861Z,97208.60
2023-03-11T15:47:17.247Z,97213.60
2023-03-11T15:54:22.388Z,97224.00
2023-03-11T15:57:30.180Z,97238.40
2023-03-11T16:00:40.611Z,97237.20
2023-03-11T16:03:57.519Z,97257.60
2023-03-11T16:07:08.362Z,97268.40
2023-03-11T16:10:19.678Z,97264.80
2023-03-11T16:13:24.798Z,97273.40
2023-03-11T16:16:30.308Z,97280.20
2023-03-11T16:19:35.643Z,97283.60
2023-03-11T16:22:40.723Z,97284.40
2023-03-11T16:25:48.044Z,97286.40
2023-03-11T16:28:53.297Z,97294.80
2023-03-11T16:32:03.310Z,97287.00
2023-03-11T16:35:11.455Z,97295.20
2023-03-11T16:38:18.964Z,97302.00
2023-03-11T16:41:24.570Z,97311.40
2023-03-11T16:44:29.850Z,97319.40
2023-03-11T16:47:34.447Z,97330.00
2023-03-11T16:50:40.070Z,97333.20
2023-03-11T16:53:44.754Z,97327.80
2023-03-11T16:56:49.608Z,97347.20
2023-03-11T16:59:54.246Z,97344.80
2023-03-11T17:02:59.227Z,97345.60
2023-03-11T17:06:06.000Z,97350.40
2023-03-11T17:09:11.157Z,97359.60
2023-03-11T17:12:17.784Z,97362.20
2023-03-11T17:15:22.945Z,97368.40
2023-03-11T17:18:28.633Z,97376.20
2023-03-11T17:21:34.199Z,97380.60
2023-03-11T17:24:39.232Z,97394.20
2023-03-11T17:27:44.629Z,97410.00
2023-03-11T17:30:49.995Z,97418.60
2023-03-11T17:33:54.993Z,97424.00
2023-03-11T17:37:00.099Z,97430.80
2023-03-11T17:40:07.311Z,97440.00
2023-03-11T17:43:12.238Z,97441.20
2023-03-11T17:46:20.250Z,97447.00
2023-03-11T17:49:25.227Z,97452.40
2023-03-11T17:52:30.916Z,97454.40
2023-03-11T17:55:40.014Z,97455.40
2023-03-11T17:58:45.767Z,97457.00
2023-03-11T18:01:50.812Z,97467.80
2023-03-11T18:04:55.555Z,97470.60
2023-03-11T18:08:00.444Z,97486.60
2023-03-11T18:11:08.494Z,97490.40
2023-03-11T18:14:13.231Z,97492.00
2023-03-11T18:17:19.147Z,97501.00
2023-03-11T18:20:24.261Z,97497.20
2023-03-11T18:23:32.377Z,97519.80
2023-03-11T18:26:37.344Z,97522.20
2023-03-11T18:29:43.406Z,97526.00
2023-03-11T18:32:48.928Z,97522.40
2023-03-11T18:35:53.777Z,97518.80
2023-03-11T18:39:02.077Z,97520.20
2023-03-11T18:42:07.527Z,97525.60
2023-03-11T18:45:13.369Z,97533.60
2023-03-11T18:48:18.824Z,97535.80
2023-03-11T18:51:24.076Z,97544.60
2023-03-11T18:54:30.599Z,97542.20
2023-03-11T18:57:36.521Z,97543.40
2023-03-11T19:00:43.039Z,97546.80
2023-03-11T19:03:53.176Z,97547.00
2023-03-11T19:06:58.639Z,97550.40
2023-03-11T19:10:04.497Z,97555.40
2023-03-11T19:13:10.701Z,97562.80
2023-03-11T19:16:18.172Z,97569.00
2023-03-11T19:19:23.534Z,97584.80
2023-03-11T19:22:28.403Z,97591.80
2023-03-11T19:25:33.896Z,97594.80
2023-03-11T19:28:38.973Z,97602.60
2023-03-11T19:31:45.141Z,97613.00
2023-03-11T19:34:49.777Z,97613.00
2023-03-11T19:37:57.330Z,97623.80
2023-03-11T19:41:06.114Z,97619.40
2023-03-11T19:44:11.034Z,97620.40
2023-03-11T19:47:18.558Z,97620.00
2023-03-11T19:50:24.291Z,97621.20
2023-03-11T19:53:29.719Z,97632.80
2023-03-11T19:56:34.781Z,97640.40
2023-03-11T19:59:39.512Z,97643.80
2023-03-11T20:02:44.952Z,97642.60
2023-03-11T20:05:52.338Z,97642.40
2023-03-11T20:08:57.941Z,97650.60
2023-03-11T20:12:02.794Z,97655.80
2023-03-11T20:15:10.757Z,97656.60
2023-03-11T20:18:16.159Z,97664.20
2023-03-11T20:21:23.854Z,97663.00
2023-03-11T20:24:28.510Z,97668.40
2023-03-11T20:27:33.382Z,97679.40
2023-03-11T20:30:40.408Z,97677.80
2023-03-11T20:33:46.032Z,97681.00
2023-03-11T20:36:50.952Z,97679.40
2023-03-11T20:39:56.451Z,97685.40
2023-03-11T20:43:01.732Z,97679.60
2023-03-11T20:46:08.688Z,97675.40
2023-03-11T20:49:13.738Z,97675.20
2023-03-11T20:52:19.275Z,97671.60
2023-03-11T20:55:24.978Z,97678.40
2023-03-11T20:58:30.481Z,97684.60
2023-03-11T21:01:36.603Z,97691.40
2023-03-11T21:04:43.693Z,97691.40
2023-03-11T21:07:50.679Z,97687.80
2023-03-11T21:11:02.195Z,97685.40
2023-03-11T21:14:08.078Z,97668.20
2023-03-11T21:17:13.454Z,97656.20
2023-03-11T21:20:19.588Z,97647.00
2023-03-11T21:23:24.968Z,97649.40
2023-03-11T21:26:29.803Z,97635.80
2023-03-11T21:29:35.547Z,97614.80
2023-03-11T21:32:40.547Z,97597.60
2023-03-11T21:35:52.022Z,97591.20
2023-03-11T21:38:57.188Z,97599.20
2023-03-11T21:42:01.968Z,97606.00
2023-03-11T21:45:09.846Z,97634.40
2023-03-11T21:48:15.159Z,97649.00
2023-03-11T21:51:21.222Z,97662.60
2023-03-11T21:54:26.773Z,97673.00
2023-03-11T21:57:31.696Z,97677.80
2023-03-11T22:00:37.967Z,97679.80
2023-03-11T22:03:43.355Z,97686.20
2023-03-11T22:06:48.247Z,97682.80
2023-03-11T22:09:53.381Z,97688.80
2023-03-11T22:12:58.465Z,97695.20
2023-03-11T22:16:06.593Z,97697.60
2023-03-11T22:19:11.632Z,97706.20
2023-03-11T22:22:17.164Z,97716.60
2023-03-11T22:25:22.596Z,97725.20
2023-03-11T22:28:27.748Z,97732.60
2023-03-11T22:31:33.206Z,97737.20
2023-03-11T22:34:38.395Z,97730.60
2023-03-11T22:37:43.066Z,97737.40
2023-03-11T22:40:48.092Z,97744.20
2023-03-11T22:43:53.499Z,97750.20
2023-03-11T22:46:58.167Z,97766.40
2023-03-11T22:50:03.188Z,97766.00
2023-03-11T22:53:08.724Z,97778.20
2023-03-11T22:56:17.040Z,97783.00
2023-03-11T22:59:21.747Z,97792.00
2023-03-11T23:02:27.511Z,97789.80
2023-03-11T23:05:40.291Z,97787.20
2023-03-11T23:08:45.881Z,97783.20
2023-03-11T23:11:51.805Z,97792.20
2023-03-11T23:14:56.992Z,97795.80
2023-03-11T23:18:02.153Z,97796.40
2023-03-11T23:21:15.257Z,97807.00
2023-03-11T23:24:20.198Z,97809.80
2023-03-11T23:27:25.081Z,97818.00
2023-03-11T23:30:31.028Z,97826.80
2023-03-11T23:33:36.941Z,97834.20
2023-03-11T23:36:41.545Z,97843.20
2023-03-11T23:39:46.343Z,97852.60
2023-03-11T23:42:51.298Z,97851.60
2023-03-11T23:45:56.819Z,97853.80
2023-03-11T23:49:02.122Z,97867.00
2023-03-11T23:52:07.995Z,97878.20
2023-03-11T23:55:14.530Z,97889.20
2023-03-11T23:58:21.374Z,97887.00
